sensor_id;sensor_type;location;lat;lon;timestamp;temperature;humidity
5419;DHT22;2732;52.092;11.556;2022-09-09T00:03:26;14.90;99.90
5419;DHT22;2732;52.092;11.556;2022-09-09T00:09:12;14.80;99.90
5419;DHT22;2732;52.092;11.556;2022-09-09T00:14:34;14.70;99.90
5419;DHT22;2732;52.092;11.556;2022-09-09T00:19:51;14.70;99.90
5419;DHT22;2732;52.092;11.556;2022-09-09T00:25:12;14.60;99.90
5419;DHT22;2732;52.092;11.556;2022-09-09T00:30:23;14.60;99.90
5419;DHT22;2732;52.092;11.556;2022-09-09T00:35:37;14.50;99.90
5419;DHT22;2732;52.092;11.556;2022-09-09T00:46:34;14.50;99.90
5419;DHT22;2732;52.092;11.556;2022-09-09T00:52:18;14.40;99.90
5419;DHT22;2732;52.092;11.556;2022-09-09T01:02:41;14.30;99.90
5419;DHT22;2732;52.092;11.556;2022-09-09T01:07:49;14.30;99.90
5419;DHT22;2732;52.092;11.556;2022-09-09T01:12:51;14.30;99.90
5419;DHT22;2732;52.092;11.556;2022-09-09T01:18:04;14.20;99.90
5419;DHT22;2732;52.092;11.556;2022-09-09T01:28:15;14.20;99.90
5419;DHT22;2732;52.092;11.556;2022-09-09T01:33:18;14.20;99.90
5419;DHT22;2732;52.092;11.556;2022-09-09T01:38:19;14.20;99.90
5419;DHT22;2732;52.092;11.556;2022-09-09T01:43:22;14.20;99.90
5419;DHT22;2732;52.092;11.556;2022-09-09T01:48:25;14.20;99.90
5419;DHT22;2732;52.092;11.556;2022-09-09T01:53:26;14.20;99.90
5419;DHT22;2732;52.092;11.556;2022-09-09T01:58:40;14.20;99.90
5419;DHT22;2732;52.092;11.556;2022-09-09T02:03:57;14.20;99.90
5419;DHT22;2732;52.092;11.556;2022-09-09T02:09:01;14.20;99.90
5419;DHT22;2732;52.092;11.556;2022-09-09T02:14:22;14.20;99.90
5419;DHT22;2732;52.092;11.556;2022-09-09T02:19:27;14.10;99.90
5419;DHT22;2732;52.092;11.556;2022-09-09T02:24:35;14.10;99.90
5419;DHT22;2732;52.092;11.556;2022-09-09T02:29:42;14.10;99.90
5419;DHT22;2732;52.092;11.556;2022-09-09T02:34:48;14.10;99.90
5419;DHT22;2732;52.092;11.556;2022-09-09T02:39:50;14.10;99.90
5419;DHT22;2732;52.092;11.556;2022-09-09T02:44:51;14.00;99.90
5419;DHT22;2732;52.092;11.556;2022-09-09T02:50:15;14.00;99.90
5419;DHT22;2732;52.092;11.556;2022-09-09T02:55:39;13.90;99.90
5419;DHT22;2732;52.092;11.556;2022-09-09T03:00:50;13.90;99.90
5419;DHT22;2732;52.092;11.556;2022-09-09T03:05:51;13.80;99.90
5419;DHT22;2732;52.092;11.556;2022-09-09T03:10:54;13.90;99.90
5419;DHT22;2732;52.092;11.556;2022-09-09T03:15:55;13.80;99.90
5419;DHT22;2732;52.092;11.556;2022-09-09T03:20:56;13.80;99.90
5419;DHT22;2732;52.092;11.556;2022-09-09T03:25:57;13.80;99.90
5419;DHT22;2732;52.092;11.556;2022-09-09T03:31:00;13.70;99.90
5419;DHT22;2732;52.092;11.556;2022-09-09T03:36:01;13.80;99.90
5419;DHT22;2732;52.092;11.556;2022-09-09T03:41:02;13.80;99.90
5419;DHT22;2732;52.092;11.556;2022-09-09T03:46:06;13.80;99.90
5419;DHT22;2732;52.092;11.556;2022-09-09T03:51:07;13.70;99.90
5419;DHT22;2732;52.092;11.556;2022-09-09T03:56:07;13.70;99.90
5419;DHT22;2732;52.092;11.556;2022-09-09T04:01:13;13.70;99.90
5419;DHT22;2732;52.092;11.556;2022-09-09T04:06:14;13.70;99.90
5419;DHT22;2732;52.092;11.556;2022-09-09T04:11:15;13.60;99.90
5419;DHT22;2732;52.092;11.556;2022-09-09T04:16:16;13.60;99.90
5419;DHT22;2732;52.092;11.556;2022-09-09T04:21:17;13.60;99.90
5419;DHT22;2732;52.092;11.556;2022-09-09T04:26:18;13.60;99.90
5419;DHT22;2732;52.092;11.556;2022-09-09T04:31:21;13.60;99.90
5419;DHT22;2732;52.092;11.556;2022-09-09T04:36:23;13.60;99.90
5419;DHT22;2732;52.092;11.556;2022-09-09T04:41:24;13.60;99.90
5419;DHT22;2732;52.092;11.556;2022-09-09T04:46:25;13.60;99.90
5419;DHT22;2732;52.092;11.556;2022-09-09T04:51:25;13.60;99.90
5419;DHT22;2732;52.092;11.556;2022-09-09T04:56:27;13.70;99.90
5419;DHT22;2732;52.092;11.556;2022-09-09T05:01:28;13.70;99.90
5419;DHT22;2732;52.092;11.556;2022-09-09T05:06:29;13.80;99.90
5419;DHT22;2732;52.092;11.556;2022-09-09T05:11:33;13.80;99.90
5419;DHT22;2732;52.092;11.556;2022-09-09T05:16:36;13.90;99.90
5419;DHT22;2732;52.092;11.556;2022-09-09T05:21:37;14.00;99.90
5419;DHT22;2732;52.092;11.556;2022-09-09T05:26:38;14.00;99.90
5419;DHT22;2732;52.092;11.556;2022-09-09T05:31:38;14.10;99.90
5419;DHT22;2732;52.092;11.556;2022-09-09T05:36:39;14.20;99.90
5419;DHT22;2732;52.092;11.556;2022-09-09T05:41:40;14.30;99.90
5419;DHT22;2732;52.092;11.556;2022-09-09T05:46:40;14.40;99.90
5419;DHT22;2732;52.092;11.556;2022-09-09T05:51:41;14.50;99.90
5419;DHT22;2732;52.092;11.556;2022-09-09T05:56:43;14.50;99.90
5419;DHT22;2732;52.092;11.556;2022-09-09T06:01:44;14.70;99.90
5419;DHT22;2732;52.092;11.556;2022-09-09T06:06:45;14.80;99.90
5419;DHT22;2732;52.092;11.556;2022-09-09T06:11:46;14.90;99.90
5419;DHT22;2732;52.092;11.556;2022-09-09T06:16:46;15.00;99.90
5419;DHT22;2732;52.092;11.556;2022-09-09T06:21:47;15.10;99.90
5419;DHT22;2732;52.092;11.556;2022-09-09T06:26:48;15.20;99.90
5419;DHT22;2732;52.092;11.556;2022-09-09T06:31:48;15.20;99.90
5419;DHT22;2732;52.092;11.556;2022-09-09T06:36:49;15.30;99.90
5419;DHT22;2732;52.092;11.556;2022-09-09T06:41:49;15.40;99.90
5419;DHT22;2732;52.092;11.556;2022-09-09T06:46:53;15.40;99.90
5419;DHT22;2732;52.092;11.556;2022-09-09T06:51:53;15.50;99.90
5419;DHT22;2732;52.092;11.556;2022-09-09T06:56:54;15.60;99.90
5419;DHT22;2732;52.092;11.556;2022-09-09T07:01:55;15.70;99.90
5419;DHT22;2732;52.092;11.556;2022-09-09T07:06:57;15.80;99.90
5419;DHT22;2732;52.092;11.556;2022-09-09T07:11:59;15.80;99.90
5419;DHT22;2732;52.092;11.556;2022-09-09T07:16:59;16.00;99.90
5419;DHT22;2732;52.092;11.556;2022-09-09T07:22:00;16.20;99.90
5419;DHT22;2732;52.092;11.556;2022-09-09T07:27:02;16.40;99.90
5419;DHT22;2732;52.092;11.556;2022-09-09T07:32:03;16.60;99.90
5419;DHT22;2732;52.092;11.556;2022-09-09T07:37:04;16.80;99.90
5419;DHT22;2732;52.092;11.556;2022-09-09T07:42:05;17.10;99.90
5419;DHT22;2732;52.092;11.556;2022-09-09T07:47:07;17.20;99.90
5419;DHT22;2732;52.092;11.556;2022-09-09T07:52:07;17.40;99.90
5419;DHT22;2732;52.092;11.556;2022-09-09T07:57:08;17.60;99.90
5419;DHT22;2732;52.092;11.556;2022-09-09T08:02:09;17.70;99.90
5419;DHT22;2732;52.092;11.556;2022-09-09T08:07:09;17.80;99.90
5419;DHT22;2732;52.092;11.556;2022-09-09T08:12:11;18.00;99.90
5419;DHT22;2732;52.092;11.556;2022-09-09T08:17:13;18.10;99.90
5419;DHT22;2732;52.092;11.556;2022-09-09T08:22:14;18.50;99.90
5419;DHT22;2732;52.092;11.556;2022-09-09T08:27:14;19.00;99.90
5419;DHT22;2732;52.092;11.556;2022-09-09T08:32:15;19.60;99.90
5419;DHT22;2732;52.092;11.556;2022-09-09T08:37:16;20.20;99.90
5419;DHT22;2732;52.092;11.556;2022-09-09T08:42:40;20.50;99.90
5419;DHT22;2732;52.092;11.556;2022-09-09T08:48:01;20.70;99.90
5419;DHT22;2732;52.092;11.556;2022-09-09T08:53:26;21.00;99.90
5419;DHT22;2732;52.092;11.556;2022-09-09T08:58:33;21.40;99.90
5419;DHT22;2732;52.092;11.556;2022-09-09T09:03:54;21.90;99.90
5419;DHT22;2732;52.092;11.556;2022-09-09T09:14:43;22.60;99.90
5419;DHT22;2732;52.092;11.556;2022-09-09T09:19:48;23.00;99.90
5419;DHT22;2732;52.092;11.556;2022-09-09T09:25:20;23.30;99.90
5419;DHT22;2732;52.092;11.556;2022-09-09T09:31:04;23.60;99.90
5419;DHT22;2732;52.092;11.556;2022-09-09T09:36:09;23.90;99.90
5419;DHT22;2732;52.092;11.556;2022-09-09T09:41:10;24.20;99.90
5419;DHT22;2732;52.092;11.556;2022-09-09T09:46:22;24.50;99.90
5419;DHT22;2732;52.092;11.556;2022-09-09T09:51:24;24.80;99.90
5419;DHT22;2732;52.092;11.556;2022-09-09T09:56:28;25.10;99.90
5419;DHT22;2732;52.092;11.556;2022-09-09T10:01:31;25.40;99.90
5419;DHT22;2732;52.092;11.556;2022-09-09T10:06:36;25.30;99.90
5419;DHT22;2732;52.092;11.556;2022-09-09T10:12:05;24.60;99.90
5419;DHT22;2732;52.092;11.556;2022-09-09T10:17:24;24.40;99.90
5419;DHT22;2732;52.092;11.556;2022-09-09T10:22:33;24.80;99.90
5419;DHT22;2732;52.092;11.556;2022-09-09T10:39:09;26.60;99.30
5419;DHT22;2732;52.092;11.556;2022-09-09T11:00:21;25.20;99.90
5419;DHT22;2732;52.092;11.556;2022-09-09T11:10:58;25.40;99.90
5419;DHT22;2732;52.092;11.556;2022-09-09T11:16:39;25.40;99.90
5419;DHT22;2732;52.092;11.556;2022-09-09T11:21:45;25.30;99.40
5419;DHT22;2732;52.092;11.556;2022-09-09T11:26:52;25.30;99.30
5419;DHT22;2732;52.092;11.556;2022-09-09T11:32:00;25.60;99.10
5419;DHT22;2732;52.092;11.556;2022-09-09T11:37:55;26.40;97.50
5419;DHT22;2732;52.092;11.556;2022-09-09T11:43:18;27.10;97.30
5419;DHT22;2732;52.092;11.556;2022-09-09T11:48:44;27.80;96.30
5419;DHT22;2732;52.092;11.556;2022-09-09T11:53:54;28.30;95.60
5419;DHT22;2732;52.092;11.556;2022-09-09T11:59:33;28.60;95.30
5419;DHT22;2732;52.092;11.556;2022-09-09T12:04:35;28.90;94.30
5419;DHT22;2732;52.092;11.556;2022-09-09T12:09:55;29.20;93.80
5419;DHT22;2732;52.092;11.556;2022-09-09T12:20:19;28.70;92.10
5419;DHT22;2732;52.092;11.556;2022-09-09T12:36:30;28.00;91.70
5419;DHT22;2732;52.092;11.556;2022-09-09T12:41:32;27.90;92.00
5419;DHT22;2732;52.092;11.556;2022-09-09T12:46:40;27.80;91.70
5419;DHT22;2732;52.092;11.556;2022-09-09T12:51:43;28.30;91.00
5419;DHT22;2732;52.092;11.556;2022-09-09T12:56:46;28.30;90.70
5419;DHT22;2732;52.092;11.556;2022-09-09T13:01:56;28.20;90.40
5419;DHT22;2732;52.092;11.556;2022-09-09T13:07:07;28.80;90.70
5419;DHT22;2732;52.092;11.556;2022-09-09T13:12:20;28.70;88.70
5419;DHT22;2732;52.092;11.556;2022-09-09T13:17:24;28.60;87.60
5419;DHT22;2732;52.092;11.556;2022-09-09T13:27:41;27.80;89.30
5419;DHT22;2732;52.092;11.556;2022-09-09T13:32:43;27.80;89.50
5419;DHT22;2732;52.092;11.556;2022-09-09T13:37:43;27.50;89.30
5419;DHT22;2732;52.092;11.556;2022-09-09T13:42:44;27.20;90.00
5419;DHT22;2732;52.092;11.556;2022-09-09T13:47:45;26.70;89.80
5419;DHT22;2732;52.092;11.556;2022-09-09T13:52:48;26.60;90.10
5419;DHT22;2732;52.092;11.556;2022-09-09T13:58:03;26.50;90.20
5419;DHT22;2732;52.092;11.556;2022-09-09T14:03:05;26.30;91.40
5419;DHT22;2732;52.092;11.556;2022-09-09T14:08:21;26.20;91.90
5419;DHT22;2732;52.092;11.556;2022-09-09T14:13:23;26.40;92.00
5419;DHT22;2732;52.092;11.556;2022-09-09T14:18:24;26.50;91.90
5419;DHT22;2732;52.092;11.556;2022-09-09T14:23:25;27.00;91.80
5419;DHT22;2732;52.092;11.556;2022-09-09T14:28:26;27.60;91.20
5419;DHT22;2732;52.092;11.556;2022-09-09T14:33:28;28.20;90.70
5419;DHT22;2732;52.092;11.556;2022-09-09T14:38:35;28.20;90.00
5419;DHT22;2732;52.092;11.556;2022-09-09T14:43:39;27.80;89.90
5419;DHT22;2732;52.092;11.556;2022-09-09T14:48:40;27.30;89.60
5419;DHT22;2732;52.092;11.556;2022-09-09T14:53:42;26.80;89.40
5419;DHT22;2732;52.092;11.556;2022-09-09T14:58:44;26.40;88.90
5419;DHT22;2732;52.092;11.556;2022-09-09T15:03:56;26.20;89.60
5419;DHT22;2732;52.092;11.556;2022-09-09T15:08:59;26.10;90.10
5419;DHT22;2732;52.092;11.556;2022-09-09T15:14:00;25.90;90.00
5419;DHT22;2732;52.092;11.556;2022-09-09T15:19:02;25.70;90.10
5419;DHT22;2732;52.092;11.556;2022-09-09T15:24:04;25.60;90.10
5419;DHT22;2732;52.092;11.556;2022-09-09T15:29:08;25.60;90.30
5419;DHT22;2732;52.092;11.556;2022-09-09T15:34:08;25.90;90.30
5419;DHT22;2732;52.092;11.556;2022-09-09T15:39:12;26.20;90.30
5419;DHT22;2732;52.092;11.556;2022-09-09T15:44:16;26.40;90.30
5419;DHT22;2732;52.092;11.556;2022-09-09T15:49:24;26.40;89.40
5419;DHT22;2732;52.092;11.556;2022-09-09T15:54:26;26.10;87.40
5419;DHT22;2732;52.092;11.556;2022-09-09T15:59:29;25.70;86.10
5419;DHT22;2732;52.092;11.556;2022-09-09T16:04:30;25.80;86.30
5419;DHT22;2732;52.092;11.556;2022-09-09T16:09:32;25.80;85.60
5419;DHT22;2732;52.092;11.556;2022-09-09T16:14:35;25.70;85.80
5419;DHT22;2732;52.092;11.556;2022-09-09T16:19:36;25.50;85.10
5419;DHT22;2732;52.092;11.556;2022-09-09T16:24:37;25.30;84.40
5419;DHT22;2732;52.092;11.556;2022-09-09T16:29:38;25.10;85.00
5419;DHT22;2732;52.092;11.556;2022-09-09T16:34:39;24.70;84.80
5419;DHT22;2732;52.092;11.556;2022-09-09T16:39:40;24.40;85.50
5419;DHT22;2732;52.092;11.556;2022-09-09T16:44:41;24.20;86.80
5419;DHT22;2732;52.092;11.556;2022-09-09T16:49:42;24.00;87.10
5419;DHT22;2732;52.092;11.556;2022-09-09T16:54:43;23.70;88.80
5419;DHT22;2732;52.092;11.556;2022-09-09T16:59:43;23.50;90.20
5419;DHT22;2732;52.092;11.556;2022-09-09T17:04:44;23.20;90.70
5419;DHT22;2732;52.092;11.556;2022-09-09T17:09:44;23.00;91.20
5419;DHT22;2732;52.092;11.556;2022-09-09T17:14:45;22.80;91.90
5419;DHT22;2732;52.092;11.556;2022-09-09T17:19:46;22.60;92.30
5419;DHT22;2732;52.092;11.556;2022-09-09T17:24:47;22.50;92.80
5419;DHT22;2732;52.092;11.556;2022-09-09T17:29:48;22.30;93.30
5419;DHT22;2732;52.092;11.556;2022-09-09T17:34:48;22.20;93.70
5419;DHT22;2732;52.092;11.556;2022-09-09T17:39:49;22.10;94.30
5419;DHT22;2732;52.092;11.556;2022-09-09T17:44:50;21.90;94.50
5419;DHT22;2732;52.092;11.556;2022-09-09T17:49:50;21.80;94.30
5419;DHT22;2732;52.092;11.556;2022-09-09T17:54:51;21.60;94.70
5419;DHT22;2732;52.092;11.556;2022-09-09T17:59:54;21.50;95.10
5419;DHT22;2732;52.092;11.556;2022-09-09T18:04:54;21.30;95.60
5419;DHT22;2732;52.092;11.556;2022-09-09T18:09:55;21.20;96.10
5419;DHT22;2732;52.092;11.556;2022-09-09T18:14:56;21.00;96.40
5419;DHT22;2732;52.092;11.556;2022-09-09T18:19:57;20.80;97.10
5419;DHT22;2732;52.092;11.556;2022-09-09T18:24:57;20.60;97.80
5419;DHT22;2732;52.092;11.556;2022-09-09T18:29:59;20.40;98.50
5419;DHT22;2732;52.092;11.556;2022-09-09T18:34:59;20.30;98.90
5419;DHT22;2732;52.092;11.556;2022-09-09T18:40:01;20.20;99.40
5419;DHT22;2732;52.092;11.556;2022-09-09T18:45:02;20.10;99.80
5419;DHT22;2732;52.092;11.556;2022-09-09T18:50:03;19.90;99.90
5419;DHT22;2732;52.092;11.556;2022-09-09T18:55:06;19.80;99.90
5419;DHT22;2732;52.092;11.556;2022-09-09T19:00:09;19.60;99.90
5419;DHT22;2732;52.092;11.556;2022-09-09T19:05:11;19.50;99.90
5419;DHT22;2732;52.092;11.556;2022-09-09T19:10:13;19.40;99.90
5419;DHT22;2732;52.092;11.556;2022-09-09T19:15:14;19.30;99.90
5419;DHT22;2732;52.092;11.556;2022-09-09T19:20:16;19.20;99.90
5419;DHT22;2732;52.092;11.556;2022-09-09T19:25:17;19.00;99.90
5419;DHT22;2732;52.092;11.556;2022-09-09T19:30:17;18.90;99.90
5419;DHT22;2732;52.092;11.556;2022-09-09T19:35:18;18.80;99.90
5419;DHT22;2732;52.092;11.556;2022-09-09T19:40:19;18.70;99.90
5419;DHT22;2732;52.092;11.556;2022-09-09T19:45:21;18.60;99.90
5419;DHT22;2732;52.092;11.556;2022-09-09T19:50:22;18.50;99.90
5419;DHT22;2732;52.092;11.556;2022-09-09T19:55:23;18.40;99.90
5419;DHT22;2732;52.092;11.556;2022-09-09T20:00:24;18.30;99.90
5419;DHT22;2732;52.092;11.556;2022-09-09T20:05:25;18.10;99.90
5419;DHT22;2732;52.092;11.556;2022-09-09T20:10:26;18.00;99.90
5419;DHT22;2732;52.092;11.556;2022-09-09T20:15:27;17.90;99.90
5419;DHT22;2732;52.092;11.556;2022-09-09T20:20:27;17.70;99.90
5419;DHT22;2732;52.092;11.556;2022-09-09T20:25:28;17.60;99.90
5419;DHT22;2732;52.092;11.556;2022-09-09T20:30:29;17.50;99.90
5419;DHT22;2732;52.092;11.556;2022-09-09T20:35:30;17.50;99.90
5419;DHT22;2732;52.092;11.556;2022-09-09T20:40:39;17.40;99.90
5419;DHT22;2732;52.092;11.556;2022-09-09T20:45:41;17.30;99.90
5419;DHT22;2732;52.092;11.556;2022-09-09T20:50:43;17.30;99.90
5419;DHT22;2732;52.092;11.556;2022-09-09T20:55:43;17.20;99.90
5419;DHT22;2732;52.092;11.556;2022-09-09T21:00:44;17.10;99.90
5419;DHT22;2732;52.092;11.556;2022-09-09T21:05:44;17.10;99.90
5419;DHT22;2732;52.092;11.556;2022-09-09T21:10:47;17.00;99.90
5419;DHT22;2732;52.092;11.556;2022-09-09T21:15:47;17.00;99.90
5419;DHT22;2732;52.092;11.556;2022-09-09T21:20:49;16.90;99.90
5419;DHT22;2732;52.092;11.556;2022-09-09T21:25:53;16.90;99.90
5419;DHT22;2732;52.092;11.556;2022-09-09T21:30:54;16.80;99.90
5419;DHT22;2732;52.092;11.556;2022-09-09T21:36:02;16.70;99.90
5419;DHT22;2732;52.092;11.556;2022-09-09T21:41:10;16.60;99.90
5419;DHT22;2732;52.092;11.556;2022-09-09T21:46:15;16.50;99.90
5419;DHT22;2732;52.092;11.556;2022-09-09T21:51:17;16.50;99.90
5419;DHT22;2732;52.092;11.556;2022-09-09T21:56:18;16.40;99.90
5419;DHT22;2732;52.092;11.556;2022-09-09T22:01:19;16.30;99.90
5419;DHT22;2732;52.092;11.556;2022-09-09T22:06:22;16.30;99.90
5419;DHT22;2732;52.092;11.556;2022-09-09T22:11:23;16.20;99.90
5419;DHT22;2732;52.092;11.556;2022-09-09T22:16:24;16.20;99.90
5419;DHT22;2732;52.092;11.556;2022-09-09T22:21:26;16.10;99.90
5419;DHT22;2732;52.092;11.556;2022-09-09T22:26:31;16.10;99.90
5419;DHT22;2732;52.092;11.556;2022-09-09T22:31:34;16.10;99.90
5419;DHT22;2732;52.092;11.556;2022-09-09T22:36:35;16.00;99.90
5419;DHT22;2732;52.092;11.556;2022-09-09T22:41:36;16.00;99.90
5419;DHT22;2732;52.092;11.556;2022-09-09T22:46:36;15.90;99.90
5419;DHT22;2732;52.092;11.556;2022-09-09T22:51:40;15.90;99.90
5419;DHT22;2732;52.092;11.556;2022-09-09T22:56:44;15.90;99.90
5419;DHT22;2732;52.092;11.556;2022-09-09T23:01:45;15.80;99.90
5419;DHT22;2732;52.092;11.556;2022-09-09T23:06:46;15.70;99.90
5419;DHT22;2732;52.092;11.556;2022-09-09T23:11:47;15.70;99.90
5419;DHT22;2732;52.092;11.556;2022-09-09T23:16:48;15.60;99.90
5419;DHT22;2732;52.092;11.556;2022-09-09T23:21:51;15.60;99.90
5419;DHT22;2732;52.092;11.556;2022-09-09T23:26:52;15.50;99.90
5419;DHT22;2732;52.092;11.556;2022-09-09T23:31:53;15.40;99.90
5419;DHT22;2732;52.092;11.556;2022-09-09T23:36:53;15.30;99.90
5419;DHT22;2732;52.092;11.556;2022-09-09T23:41:54;15.30;99.90
5419;DHT22;2732;52.092;11.556;2022-09-09T23:46:55;15.20;99.90
5419;DHT22;2732;52.092;11.556;2022-09-09T23:51:55;15.20;99.90
5419;DHT22;2732;52.092;11.556;2022-09-09T23:56:56;15.20;99.90
